Time;durP1;ratioP1;P1;durP2;ratioP2;P2;SDS_P1;SDS_P2;PMS_P1;PMS_P2;Temp;Humidity;BMP_temperature;BMP_pressure;BME280_temperature;BME280_humidity;BME280_pressure;Samples;Min_cycle;Max_cycle;Signal;HPM_P1;HPM_P2
2023/05/01 00:01:37;;;;;;;3.10;2.90;;;;;;;;;;5076296;28;20039;-27
2023/05/01 00:04:04;;;;;;;2.92;2.80;;;;;;;;;;5075930;28;20056;-27
2023/05/01 00:06:32;;;;;;;3.13;2.92;;;;;;;;;;5076449;28;20016;-27
2023/05/01 00:08:58;;;;;;;2.92;2.83;;;;;;;;;;5075958;28;20042;-27
2023/05/01 00:11:25;;;;;;;3.25;3.05;;;;;;;;;;5076066;28;20056;-27
2023/05/01 00:13:53;;;;;;;3.45;3.25;;;;;;;;;;5076948;28;20021;-27
2023/05/01 00:16:19;;;;;;;2.50;2.40;;;;;;;;;;5076244;28;20373;-27
2023/05/01 00:18:45;;;;;;;3.95;3.30;;;;;;;;;;5075856;28;20048;-27
2023/05/01 00:21:11;;;;;;;3.47;3.28;;;;;;;;;;5075798;28;20021;-27
2023/05/01 00:23:37;;;;;;;3.33;3.13;;;;;;;;;;5075779;28;20550;-27
2023/05/01 00:26:03;;;;;;;3.08;2.97;;;;;;;;;;5076014;28;20031;-27
2023/05/01 00:28:30;;;;;;;3.40;3.22;;;;;;;;;;5076254;28;20051;-27
2023/05/01 00:30:57;;;;;;;2.88;2.78;;;;;;;;;;5075908;28;20329;-27
2023/05/01 00:33:23;;;;;;;2.60;2.50;;;;;;;;;;5075518;28;20040;-27
2023/05/01 00:35:50;;;;;;;2.80;2.60;;;;;;;;;;5075552;28;20028;-27
2023/05/01 00:38:16;;;;;;;2.92;2.83;;;;;;;;;;5075480;28;20447;-27
2023/05/01 00:40:46;;;;;;;3.00;2.90;;;;;;;;;;5057882;28;20039;-27
2023/05/01 00:43:12;;;;;;;2.40;2.30;;;;;;;;;;5075378;28;20098;-27
2023/05/01 00:45:43;;;;;;;3.33;3.13;;;;;;;;;;5075323;28;20471;-27
2023/05/01 00:48:09;;;;;;;3.03;2.83;;;;;;;;;;5076072;28;20039;-27
2023/05/01 00:50:36;;;;;;;3.28;3.08;;;;;;;;;;5075480;28;20039;-27
2023/05/01 00:53:02;;;;;;;3.05;2.92;;;;;;;;;;5075435;28;20047;-27
2023/05/01 00:55:29;;;;;;;3.03;2.85;;;;;;;;;;5075217;28;20031;-27
2023/05/01 00:57:56;;;;;;;3.10;3.00;;;;;;;;;;5075393;28;20016;-27
2023/05/01 01:00:23;;;;;;;2.83;2.72;;;;;;;;;;5075401;28;20478;-27
2023/05/01 01:02:50;;;;;;;2.72;2.63;;;;;;;;;;5074958;28;20035;-27
2023/05/01 01:05:17;;;;;;;2.78;2.67;;;;;;;;;;5074279;28;20094;-27
2023/05/01 01:07:57;;;;;;;2.67;2.58;;;;;;;;;;5074989;28;20471;-27
2023/05/01 01:10:40;;;;;;;2.97;2.50;;;;;;;;;;5074879;28;20447;-27
2023/05/01 01:13:19;;;;;;;2.78;2.67;;;;;;;;;;5074815;28;20161;-27
2023/05/01 01:15:59;;;;;;;2.70;2.60;;;;;;;;;;5075169;28;20027;-27
2023/05/01 01:18:40;;;;;;;2.70;2.60;;;;;;;;;;5074833;28;20020;-27
2023/05/01 01:21:06;;;;;;;;;;;;;;;;;;5075559;28;20020;-27
2023/05/01 01:23:32;;;;;;;3.05;2.85;;;;;;;;;;5057084;28;20351;-27
2023/05/01 01:26:16;;;;;;;2.55;2.45;;;;;;;;;;5074729;28;20106;-27
2023/05/01 01:28:52;;;;;;;3.00;2.90;;;;;;;;;;5074903;28;20028;-27
2023/05/01 01:31:22;;;;;;;2.60;2.50;;;;;;;;;;5074949;28;20024;-27
2023/05/01 01:34:00;;;;;;;2.88;2.78;;;;;;;;;;5074535;28;20065;-27
2023/05/01 01:36:47;;;;;;;2.40;2.30;;;;;;;;;;5074886;28;20021;-27
2023/05/01 01:39:36;;;;;;;2.55;2.45;;;;;;;;;;5060846;28;20395;-27
2023/05/01 01:42:05;;;;;;;2.95;2.75;;;;;;;;;;5074804;28;20032;-27
2023/05/01 01:44:38;;;;;;;2.80;2.70;;;;;;;;;;5074586;28;20025;-27
2023/05/01 01:47:06;;;;;;;2.50;2.40;;;;;;;;;;5075077;28;20431;-27
2023/05/01 01:49:33;;;;;;;2.85;2.75;;;;;;;;;;5074409;28;20036;-27
2023/05/01 01:52:01;;;;;;;2.88;2.78;;;;;;;;;;5074670;28;20021;-27
2023/05/01 01:54:30;;;;;;;2.60;2.50;;;;;;;;;;5074460;28;20024;-25
2023/05/01 01:56:58;;;;;;;2.78;2.67;;;;;;;;;;5074382;28;20056;-25
2023/05/01 01:59:25;;;;;;;2.55;2.45;;;;;;;;;;5074676;28;20122;-25
2023/05/01 02:01:53;;;;;;;2.42;2.33;;;;;;;;;;5074503;28;20025;-26
2023/05/01 02:04:19;;;;;;;2.13;2.03;;;;;;;;;;5074155;28;20052;-26
2023/05/01 02:06:46;;;;;;;2.70;2.60;;;;;;;;;;5074317;28;20063;-25
2023/05/01 02:09:14;;;;;;;4.68;2.53;;;;;;;;;;5074474;28;20040;-26
2023/05/01 02:11:40;;;;;;;2.60;2.45;;;;;;;;;;5074241;28;20456;-26
2023/05/01 02:14:08;;;;;;;2.88;2.70;;;;;;;;;;5074180;28;20368;-26
2023/05/01 02:16:34;;;;;;;2.50;2.40;;;;;;;;;;5076156;28;20040;-25
2023/05/01 02:19:02;;;;;;;2.70;2.60;;;;;;;;;;5078470;28;20410;-26
2023/05/01 02:21:29;;;;;;;3.10;3.00;;;;;;;;;;5078427;28;20031;-26
2023/05/01 02:23:57;;;;;;;2.50;2.40;;;;;;;;;;5077978;28;20089;-25
2023/05/01 02:26:25;;;;;;;2.75;2.63;;;;;;;;;;5078048;28;20456;-25
2023/05/01 02:28:51;;;;;;;2.33;2.22;;;;;;;;;;5077909;28;20056;-25
2023/05/01 02:31:17;;;;;;;2.28;2.17;;;;;;;;;;5078020;28;20059;-26
2023/05/01 02:33:43;;;;;;;3.15;2.95;;;;;;;;;;5077884;28;20117;-25
2023/05/01 02:36:12;;;;;;;2.50;2.40;;;;;;;;;;5077857;28;20028;-26
2023/05/01 02:38:38;;;;;;;2.55;2.45;;;;;;;;;;5078876;28;20352;-25
2023/05/01 02:41:05;;;;;;;2.60;2.40;;;;;;;;;;5077725;28;20025;-25
2023/05/01 02:43:32;;;;;;;2.72;2.53;;;;;;;;;;5077694;28;20118;-25
2023/05/01 02:45:59;;;;;;;2.58;2.47;;;;;;;;;;5077945;28;20389;-25
2023/05/01 02:48:27;;;;;;;2.72;2.63;;;;;;;;;;5077930;28;20042;-26
2023/05/01 02:50:54;;;;;;;2.50;2.40;;;;;;;;;;5077457;28;20125;-25
2023/05/01 02:53:21;;;;;;;2.83;2.72;;;;;;;;;;5077440;28;20031;-25
2023/05/01 02:55:48;;;;;;;2.67;2.28;;;;;;;;;;5077750;28;20016;-25
2023/05/01 02:58:15;;;;;;;2.38;2.28;;;;;;;;;;5077999;28;20078;-25
2023/05/01 03:00:41;;;;;;;2.22;2.13;;;;;;;;;;5077446;28;20025;-25
2023/05/01 03:03:07;;;;;;;3.05;2.95;;;;;;;;;;5077021;28;20515;-25
2023/05/01 03:05:34;;;;;;;2.85;2.75;;;;;;;;;;5077645;28;20043;-26
2023/05/01 03:08:00;;;;;;;2.55;2.45;;;;;;;;;;5077315;28;20359;-25
2023/05/01 03:10:26;;;;;;;2.40;2.30;;;;;;;;;;5077446;28;20095;-25
2023/05/01 03:12:52;;;;;;;2.75;2.65;;;;;;;;;;5077099;28;20021;-25
2023/05/01 03:15:18;;;;;;;3.08;2.88;;;;;;;;;;5077442;28;20461;-25
2023/05/01 03:17:44;;;;;;;2.75;2.65;;;;;;;;;;5077659;28;20455;-26
2023/05/01 03:20:11;;;;;;;2.78;2.58;;;;;;;;;;5077026;28;20029;-26
2023/05/01 03:22:37;;;;;;;2.33;2.22;;;;;;;;;;5076940;28;20174;-26
2023/05/01 03:25:04;;;;;;;2.42;2.33;;;;;;;;;;5077270;28;20029;-26
2023/05/01 03:27:30;;;;;;;2.45;2.30;;;;;;;;;;5058772;28;20103;-26
2023/05/01 03:29:56;;;;;;;2.78;2.67;;;;;;;;;;5077100;28;20039;-26
2023/05/01 03:32:22;;;;;;;2.63;2.50;;;;;;;;;;5077585;28;20048;-26
2023/05/01 03:34:49;;;;;;;2.65;2.55;;;;;;;;;;5077268;28;20020;-26
2023/05/01 03:37:15;;;;;;;2.38;2.28;;;;;;;;;;5076748;28;20030;-26
2023/05/01 03:39:41;;;;;;;2.67;2.58;;;;;;;;;;5077657;28;20033;-26
2023/05/01 03:42:07;;;;;;;2.95;2.75;;;;;;;;;;5077088;28;20461;-26
2023/05/01 03:44:33;;;;;;;2.50;2.40;;;;;;;;;;5076602;28;20036;-26
2023/05/01 03:46:59;;;;;;;2.40;2.30;;;;;;;;;;5076779;28;20029;-26
2023/05/01 03:49:25;;;;;;;3.10;2.90;;;;;;;;;;5077433;28;20028;-26
2023/05/01 03:51:52;;;;;;;2.47;2.38;;;;;;;;;;5076615;28;20389;-26
2023/05/01 03:54:18;;;;;;;2.53;2.42;;;;;;;;;;5076367;28;20081;-26
2023/05/01 03:56:44;;;;;;;2.92;2.78;;;;;;;;;;5076306;28;20501;-26
2023/05/01 03:59:11;;;;;;;2.50;2.40;;;;;;;;;;5076556;28;20032;-26
2023/05/01 04:01:38;;;;;;;2.58;2.47;;;;;;;;;;5077135;28;20416;-26
2023/05/01 04:04:04;;;;;;;2.67;2.58;;;;;;;;;;5075910;28;20387;-26
2023/05/01 04:06:31;;;;;;;2.85;2.65;;;;;;;;;;5076322;28;20439;-26
2023/05/01 04:08:57;;;;;;;2.47;2.38;;;;;;;;;;5075915;28;20120;-28
2023/05/01 04:11:23;;;;;;;2.65;2.50;;;;;;;;;;5076012;28;20090;-27
2023/05/01 04:13:49;;;;;;;2.40;2.30;;;;;;;;;;5075875;28;20028;-27
2023/05/01 04:16:16;;;;;;;2.47;2.38;;;;;;;;;;5076143;28;20012;-27
2023/05/01 04:18:43;;;;;;;2.53;2.40;;;;;;;;;;5076776;28;20405;-27
2023/05/01 04:21:09;;;;;;;2.60;2.45;;;;;;;;;;5075662;28;20048;-27
2023/05/01 04:23:35;;;;;;;2.47;2.35;;;;;;;;;;5075758;28;20032;-27
2023/05/01 04:26:02;;;;;;;11.88;4.07;;;;;;;;;;5075971;28;20046;-27
2023/05/01 04:28:29;;;;;;;4.38;2.60;;;;;;;;;;5075576;28;20078;-27
2023/05/01 04:30:56;;;;;;;2.50;2.38;;;;;;;;;;5075672;28;20033;-27
2023/05/01 04:33:22;;;;;;;2.60;2.40;;;;;;;;;;5076139;28;20046;-27
2023/05/01 04:35:49;;;;;;;3.13;2.10;;;;;;;;;;5075600;28;20082;-27
2023/05/01 04:38:15;;;;;;;3.17;2.90;;;;;;;;;;5074963;28;20352;-27
2023/05/01 04:40:41;;;;;;;3.20;3.00;;;;;;;;;;5075175;28;20024;-27
2023/05/01 04:43:07;;;;;;;2.92;2.72;;;;;;;;;;5075391;28;20055;-27
2023/05/01 04:45:33;;;;;;;2.63;2.53;;;;;;;;;;5075510;28;20366;-27
2023/05/01 04:47:59;;;;;;;6.13;3.20;;;;;;;;;;5075098;28;20032;-27
2023/05/01 04:50:25;;;;;;;2.15;2.05;;;;;;;;;;5075032;28;20108;-27
2023/05/01 04:52:52;;;;;;;2.80;2.70;;;;;;;;;;5075745;28;20052;-28
2023/05/01 04:55:18;;;;;;;2.88;2.30;;;;;;;;;;5075291;28;20317;-27
2023/05/01 04:57:45;;;;;;;5.75;2.30;;;;;;;;;;5075182;28;20021;-27
2023/05/01 05:00:11;;;;;;;3.10;2.30;;;;;;;;;;5074663;28;20067;-27
2023/05/01 05:02:38;;;;;;;3.15;2.90;;;;;;;;;;5057313;28;20060;-27
2023/05/01 05:05:04;;;;;;;6.15;3.13;;;;;;;;;;5074541;28;20048;-27
2023/05/01 05:07:30;;;;;;;3.15;2.58;;;;;;;;;;5074626;28;20033;-27
2023/05/01 05:09:56;;;;;;;2.10;2.00;;;;;;;;;;5074589;28;20055;-27
2023/05/01 05:12:23;;;;;;;2.53;2.42;;;;;;;;;;5074873;28;20370;-27
2023/05/01 05:14:49;;;;;;;3.13;2.83;;;;;;;;;;5074710;28;20099;-27
2023/05/01 05:17:15;;;;;;;3.80;2.33;;;;;;;;;;5075006;28;20032;-27
2023/05/01 05:19:41;;;;;;;2.78;2.53;;;;;;;;;;5075048;28;20024;-27
2023/05/01 05:22:07;;;;;;;3.03;2.70;;;;;;;;;;5074875;28;20024;-28
2023/05/01 05:24:33;;;;;;;2.20;2.10;;;;;;;;;;5074607;28;20032;-27
2023/05/01 05:26:59;;;;;;;2.85;2.25;;;;;;;;;;5074914;28;20032;-27
2023/05/01 05:29:26;;;;;;;3.13;2.88;;;;;;;;;;5074820;28;20113;-27
2023/05/01 05:31:52;;;;;;;3.25;2.90;;;;;;;;;;5075502;28;20308;-27
2023/05/01 05:34:18;;;;;;;2.33;2.17;;;;;;;;;;5074855;28;20035;-27
2023/05/01 05:36:44;;;;;;;3.80;2.40;;;;;;;;;;5075088;28;20333;-27
2023/05/01 05:39:12;;;;;;;2.67;2.47;;;;;;;;;;5074855;28;20086;-27
2023/05/01 05:41:38;;;;;;;4.88;2.47;;;;;;;;;;5074543;28;20025;-27
2023/05/01 05:44:04;;;;;;;2.53;2.30;;;;;;;;;;5074684;28;20024;-27
2023/05/01 05:46:30;;;;;;;9.65;3.00;;;;;;;;;;5074372;28;20025;-27
2023/05/01 05:48:56;;;;;;;4.40;2.60;;;;;;;;;;5074322;28;20066;-27
2023/05/01 05:51:22;;;;;;;4.95;2.38;;;;;;;;;;5074577;28;20021;-27
2023/05/01 05:53:48;;;;;;;3.10;2.25;;;;;;;;;;5074194;28;20013;-27
2023/05/01 05:56:15;;;;;;;2.65;2.45;;;;;;;;;;5074210;28;20024;-27
2023/05/01 05:58:41;;;;;;;4.45;2.30;;;;;;;;;;5074442;28;20021;-27
2023/05/01 06:03:43;;;;;;;2.42;2.33;;;;;;;;;;5244909;22;20063;-24
2023/05/01 06:06:10;;;;;;;2.80;2.50;;;;;;;;;;5074697;28;20328;-25
2023/05/01 06:08:37;;;;;;;2.80;2.60;;;;;;;;;;5074357;28;20048;-25
2023/05/01 06:11:03;;;;;;;4.95;2.17;;;;;;;;;;5074174;28;20078;-25
2023/05/01 06:13:31;;;;;;;4.72;2.35;;;;;;;;;;5056504;28;20040;-25
2023/05/01 06:15:58;;;;;;;3.03;1.90;;;;;;;;;;5074486;28;20021;-26
2023/05/01 06:18:24;;;;;;;2.40;2.30;;;;;;;;;;5074423;28;20328;-25
2023/05/01 06:20:51;;;;;;;2.58;2.38;;;;;;;;;;5073988;28;20020;-25
2023/05/01 06:23:17;;;;;;;3.33;2.60;;;;;;;;;;5056228;28;20065;-25
2023/05/01 06:25:44;;;;;;;4.38;2.45;;;;;;;;;;5074262;28;20025;-25
2023/05/01 06:28:10;;;;;;;2.40;2.20;;;;;;;;;;5074022;28;20039;-24
2023/05/01 06:30:36;;;;;;;4.93;2.17;;;;;;;;;;5056253;28;20063;-25
2023/05/01 06:33:03;;;;;;;4.00;2.20;;;;;;;;;;5074212;28;20059;-25
2023/05/01 06:35:29;;;;;;;2.97;2.78;;;;;;;;;;5074078;28;20350;-25
2023/05/01 06:37:56;;;;;;;2.38;2.08;;;;;;;;;;5073958;28;20036;-25
2023/05/01 06:40:22;;;;;;;3.47;2.75;;;;;;;;;;5073735;28;20025;-25
2023/05/01 06:42:48;;;;;;;3.03;2.38;;;;;;;;;;5073830;28;20104;-25
2023/05/01 06:45:15;;;;;;;2.03;1.92;;;;;;;;;;5074480;28;20036;-25
2023/05/01 06:47:42;;;;;;;3.95;2.00;;;;;;;;;;5073965;28;20451;-24
2023/05/01 06:50:13;;;;;;;4.13;2.88;;;;;;;;;;5073866;28;20107;-25
2023/05/01 06:52:40;;;;;;;13.02;3.90;;;;;;;;;;5074010;28;20020;-25
2023/05/01 06:55:07;;;;;;;4.18;2.30;;;;;;;;;;5056212;28;20107;-25
2023/05/01 06:57:34;;;;;;;7.80;3.60;;;;;;;;;;5074061;28;20017;-25
2023/05/01 07:00:12;;;;;;;3.35;2.58;;;;;;;;;;5073768;28;20021;-25
2023/05/01 07:02:52;;;;;;;4.20;2.33;;;;;;;;;;5075254;28;20056;-25
2023/05/01 07:05:31;;;;;;;4.28;2.97;;;;;;;;;;5077317;28;20024;-25
2023/05/01 07:23:24;;;;;;;6.97;2.60;;;;;;;;;;5438138;22;20048;-28
2023/05/01 07:25:50;;;;;;;8.90;2.20;;;;;;;;;;5077209;28;20367;-28
2023/05/01 07:28:18;;;;;;;10.07;2.60;;;;;;;;;;5077005;28;20024;-29
2023/05/01 07:30:44;;;;;;;2.80;2.50;;;;;;;;;;5076927;28;20082;-28
2023/05/01 07:33:10;;;;;;;5.03;2.38;;;;;;;;;;5076754;28;20119;-28
2023/05/01 07:35:37;;;;;;;4.28;2.10;;;;;;;;;;5076947;28;20099;-28
2023/05/01 07:38:03;;;;;;;2.80;2.25;;;;;;;;;;5076602;28;20043;-27
2023/05/01 07:40:29;;;;;;;6.47;2.65;;;;;;;;;;5076789;28;20102;-28
2023/05/01 07:42:56;;;;;;;4.97;2.90;;;;;;;;;;5076377;28;20033;-27
2023/05/01 07:45:22;;;;;;;11.07;2.90;;;;;;;;;;5076467;28;20028;-28
2023/05/01 07:47:48;;;;;;;6.78;2.70;;;;;;;;;;5076522;28;20122;-29
2023/05/01 07:50:15;;;;;;;12.68;2.67;;;;;;;;;;5076657;28;20039;-28
2023/05/01 07:52:42;;;;;;;5.72;2.50;;;;;;;;;;5076462;28;20016;-28
2023/05/01 07:55:08;;;;;;;4.68;2.75;;;;;;;;;;5076651;28;20145;-28
2023/05/01 07:57:35;;;;;;;3.08;2.42;;;;;;;;;;5076347;28;20020;-28
2023/05/01 08:00:01;;;;;;;5.18;2.28;;;;;;;;;;5076225;28;20023;-28
2023/05/01 08:02:27;;;;;;;4.38;2.47;;;;;;;;;;5058472;28;20032;-28
2023/05/01 08:04:53;;;;;;;5.22;2.30;;;;;;;;;;5076250;28;20401;-28
2023/05/01 08:07:21;;;;;;;5.22;2.47;;;;;;;;;;5076463;28;20079;-29
2023/05/01 08:09:47;;;;;;;5.18;2.40;;;;;;;;;;5058442;28;20021;-28
2023/05/01 08:12:13;;;;;;;20.80;3.85;;;;;;;;;;5076187;28;20109;-28
2023/05/01 08:14:39;;;;;;;15.77;2.80;;;;;;;;;;5075937;28;20032;-29
2023/05/01 08:17:06;;;;;;;6.57;2.85;;;;;;;;;;5075880;28;20051;-28
2023/05/01 08:19:32;;;;;;;3.95;2.30;;;;;;;;;;5075918;28;20025;-29
2023/05/01 08:21:59;;;;;;;3.22;2.50;;;;;;;;;;5076067;28;20387;-28
2023/05/01 08:24:26;;;;;;;2.50;2.28;;;;;;;;;;5075666;28;20056;-28
2023/05/01 08:26:52;;;;;;;3.92;2.42;;;;;;;;;;5571709;22;20402;-28
2023/05/01 08:29:18;;;;;;;8.30;2.35;;;;;;;;;;5075636;28;20409;-29
2023/05/01 08:31:44;;;;;;;8.38;2.42;;;;;;;;;;5058011;28;20107;-29
2023/05/01 08:34:10;;;;;;;3.85;2.92;;;;;;;;;;5075615;28;20020;-29
2023/05/01 08:36:37;;;;;;;3.15;2.00;;;;;;;;;;5075474;28;20021;-29
2023/05/01 08:39:04;;;;;;;7.28;2.40;;;;;;;;;;5075377;28;20036;-28
2023/05/01 08:41:31;;;;;;;5.95;2.28;;;;;;;;;;5075647;28;20017;-29
2023/05/01 08:43:57;;;;;;;9.85;2.90;;;;;;;;;;5075480;28;20085;-29
2023/05/01 08:46:44;;;;;;;4.13;2.30;;;;;;;;;;5075414;28;20024;-29
2023/05/01 08:49:12;;;;;;;2.75;2.08;;;;;;;;;;5075513;28;20068;-29
2023/05/01 08:51:39;;;;;;;8.95;2.38;;;;;;;;;;5075835;28;20024;-30
2023/05/01 08:54:07;;;;;;;3.13;2.15;;;;;;;;;;5075435;28;20449;-29
2023/05/01 08:56:35;;;;;;;4.53;2.67;;;;;;;;;;5075279;28;20480;-29
2023/05/01 08:59:03;;;;;;;6.40;2.70;;;;;;;;;;5075042;28;20024;-29
2023/05/01 09:01:31;;;;;;;5.80;2.42;;;;;;;;;;5075237;28;20347;-29
2023/05/01 09:03:58;;;;;;;9.57;2.90;;;;;;;;;;5075297;28;20021;-29
2023/05/01 09:06:27;;;;;;;10.90;3.78;;;;;;;;;;5074926;28;20043;-29
2023/05/01 09:08:53;;;;;;;4.05;2.28;;;;;;;;;;5074930;28;20158;-29
2023/05/01 09:11:21;;;;;;;3.35;2.40;;;;;;;;;;5074897;28;20024;-30
2023/05/01 09:13:47;;;;;;;7.05;2.38;;;;;;;;;;5074917;28;20100;-30
2023/05/01 09:16:13;;;;;;;3.45;2.75;;;;;;;;;;5074821;28;20394;-30
2023/05/01 09:18:40;;;;;;;8.43;3.17;;;;;;;;;;5075085;28;20470;-29
2023/05/01 09:21:06;;;;;;;6.47;4.60;;;;;;;;;;5075101;28;20354;-30
2023/05/01 09:23:34;;;;;;;7.20;2.65;;;;;;;;;;5057089;28;20029;-29
2023/05/01 09:26:04;;;;;;;6.25;2.53;;;;;;;;;;5056630;28;20447;-30
2023/05/01 09:28:43;;;;;;;6.53;2.75;;;;;;;;;;5074441;28;20366;-29
2023/05/01 09:31:28;;;;;;;12.10;3.33;;;;;;;;;;5074850;28;20024;-29
2023/05/01 09:33:55;;;;;;;10.18;2.97;;;;;;;;;;5074578;28;20028;-29
2023/05/01 09:36:22;;;;;;;5.55;2.47;;;;;;;;;;5057175;28;20103;-29
2023/05/01 09:38:48;;;;;;;4.85;2.40;;;;;;;;;;5074804;28;20381;-29
2023/05/01 09:41:14;;;;;;;8.00;3.00;;;;;;;;;;5074576;28;20447;-29
2023/05/01 09:43:42;;;;;;;5.90;2.42;;;;;;;;;;5074453;28;20036;-30
2023/05/01 09:46:10;;;;;;;4.53;2.38;;;;;;;;;;5056475;28;20056;-30
2023/05/01 09:48:37;;;;;;;5.60;2.65;;;;;;;;;;5074568;28;20032;-29
2023/05/01 09:51:22;;;;;;;4.95;2.38;;;;;;;;;;5074197;28;20086;-29
2023/05/01 09:53:48;;;;;;;9.98;3.05;;;;;;;;;;5056521;28;20112;-30
2023/05/01 09:56:14;;;;;;;3.78;2.60;;;;;;;;;;5056783;28;20017;-30
2023/05/01 09:58:40;;;;;;;5.80;2.22;;;;;;;;;;5074258;28;20020;-30
2023/05/01 10:01:07;;;;;;;5.50;2.38;;;;;;;;;;5075075;28;20158;-29
2023/05/01 10:03:34;;;;;;;8.88;2.83;;;;;;;;;;5074324;28;20028;-30
2023/05/01 10:06:02;;;;;;;10.07;2.80;;;;;;;;;;5056609;28;20129;-30
2023/05/01 10:08:45;;;;;;;7.45;2.25;;;;;;;;;;5074244;28;20081;-30
2023/05/01 10:11:11;;;;;;;11.20;3.95;;;;;;;;;;5074470;28;20024;-29
2023/05/01 10:13:37;;;;;;;7.65;2.55;;;;;;;;;;5074125;28;20082;-30
2023/05/01 10:16:07;;;;;;;7.05;2.95;;;;;;;;;;5074326;28;20355;-30
2023/05/01 10:18:36;;;;;;;5.63;2.97;;;;;;;;;;5074089;28;20031;-29
2023/05/01 10:21:03;;;;;;;9.20;2.38;;;;;;;;;;5074079;28;20032;-30
2023/05/01 10:23:30;;;;;;;5.18;3.22;;;;;;;;;;5056551;28;20103;-30
2023/05/01 10:25:57;;;;;;;2.63;2.40;;;;;;;;;;5074374;28;20378;-30
2023/05/01 10:28:24;;;;;;;7.45;3.00;;;;;;;;;;5073795;28;20052;-30
2023/05/01 10:30:51;;;;;;;6.68;2.53;;;;;;;;;;5074270;28;20036;-27
2023/05/01 10:33:17;;;;;;;3.67;2.40;;;;;;;;;;5074019;28;20021;-27
2023/05/01 10:35:45;;;;;;;4.90;2.20;;;;;;;;;;5056405;28;20099;-27
2023/05/01 10:38:18;;;;;;;4.15;2.50;;;;;;;;;;5076476;28;20381;-27
2023/05/01 10:40:45;;;;;;;3.53;2.53;;;;;;;;;;5078080;28;20025;-27
2023/05/01 10:43:27;;;;;;;2.33;2.15;;;;;;;;;;5077699;28;20028;-27
2023/05/01 10:46:14;;;;;;;2.47;1.95;;;;;;;;;;5078217;28;20021;-29
2023/05/01 10:48:41;;;;;;;7.63;2.20;;;;;;;;;;5077898;28;20032;-30
2023/05/01 10:51:23;;;;;;;9.27;2.63;;;;;;;;;;5077511;28;20362;-29
2023/05/01 10:54:09;;;;;;;7.95;3.35;;;;;;;;;;5077690;28;20021;-29
2023/05/01 10:56:35;;;;;;;4.03;2.42;;;;;;;;;;5077447;28;20054;-29
2023/05/01 10:59:03;;;;;;;5.68;2.55;;;;;;;;;;5077391;28;20017;-30
2023/05/01 11:01:39;;;;;;;2.92;2.70;;;;;;;;;;5077381;28;20016;-30
2023/05/01 11:04:28;;;;;;;4.38;2.42;;;;;;;;;;5077323;28;20451;-29
2023/05/01 11:07:06;;;;;;;6.50;2.78;;;;;;;;;;5077109;28;20045;-30
2023/05/01 11:09:39;;;;;;;5.80;2.58;;;;;;;;;;5077475;28;20028;-29
2023/05/01 11:12:06;;;;;;;3.55;2.58;;;;;;;;;;5077113;28;20021;-29
2023/05/01 11:14:51;;;;;;;9.05;2.78;;;;;;;;;;5077167;28;20020;-30
2023/05/01 11:17:35;;;;;;;10.85;3.60;;;;;;;;;;5077265;28;20039;-28
2023/05/01 11:20:02;;;;;;;6.28;2.85;;;;;;;;;;5077005;28;20024;-28
2023/05/01 11:22:29;;;;;;;8.15;2.63;;;;;;;;;;5077029;28;20447;-28
2023/05/01 11:24:56;;;;;;;5.05;2.17;;;;;;;;;;5077200;28;20024;-28
2023/05/01 11:27:22;;;;;;;2.95;2.75;;;;;;;;;;5076605;28;20048;-27
2023/05/01 11:29:49;;;;;;;9.40;2.83;;;;;;;;;;5076854;28;20543;-28
2023/05/01 11:32:19;;;;;;;7.80;3.17;;;;;;;;;;5077377;28;20025;-27
2023/05/01 11:34:46;;;;;;;8.15;2.97;;;;;;;;;;5059162;28;20021;-27
2023/05/01 11:37:12;;;;;;;4.68;2.63;;;;;;;;;;5076746;28;20016;-28
2023/05/01 11:39:38;;;;;;;9.65;3.00;;;;;;;;;;5076980;28;20325;-28
2023/05/01 11:42:08;;;;;;;12.93;4.18;;;;;;;;;;5076662;28;20474;-27
2023/05/01 11:44:34;;;;;;;4.07;2.93;;;;;;;;;;5076671;28;20040;-27
2023/05/01 11:47:01;;;;;;;7.80;3.08;;;;;;;;;;5076506;28;20316;-28
2023/05/01 11:49:27;;;;;;;6.38;2.90;;;;;;;;;;5076081;28;20024;-28
2023/05/01 11:51:57;;;;;;;10.75;2.72;;;;;;;;;;5058789;28;20025;-28
2023/05/01 11:54:24;;;;;;;6.63;3.17;;;;;;;;;;5076604;28;20051;-28
2023/05/01 11:56:59;;;;;;;4.85;2.60;;;;;;;;;;5076497;28;20067;-28
2023/05/01 11:59:26;;;;;;;8.90;2.50;;;;;;;;;;5076485;28;20040;-28
2023/05/01 12:01:52;;;;;;;6.93;2.78;;;;;;;;;;5058575;28;20356;-28
2023/05/01 12:04:28;;;;;;;6.45;2.67;;;;;;;;;;5076155;28;20028;-28
2023/05/01 12:06:55;;;;;;;6.93;3.38;;;;;;;;;;5075996;28;20043;-28
2023/05/01 12:09:25;;;;;;;7.07;3.00;;;;;;;;;;5076319;28;20028;-28
2023/05/01 12:11:52;;;;;;;12.10;3.45;;;;;;;;;;5076189;28;20085;-28
2023/05/01 12:14:19;;;;;;;11.10;2.88;;;;;;;;;;5076292;28;20048;-28
2023/05/01 12:16:45;;;;;;;6.95;3.38;;;;;;;;;;5076156;28;20036;-30
2023/05/01 12:19:16;;;;;;;13.68;3.40;;;;;;;;;;5076217;28;20031;-29
2023/05/01 12:21:42;;;;;;;8.93;2.80;;;;;;;;;;5075989;28;20044;-29
2023/05/01 12:24:09;;;;;;;5.43;3.22;;;;;;;;;;5075932;28;20021;-28
2023/05/01 12:26:36;;;;;;;13.48;3.55;;;;;;;;;;5075827;28;20031;-29
2023/05/01 12:29:07;;;;;;;7.65;3.13;;;;;;;;;;5058114;28;20233;-29
2023/05/01 12:31:33;;;;;;;;;;;;;;;;;;5076017;28;20496;-30
2023/05/01 12:34:00;;;;;;;9.30;3.15;;;;;;;;;;5076007;28;19905;-30
2023/05/01 12:36:27;;;;;;;9.07;3.22;;;;;;;;;;5075798;28;20020;-29
2023/05/01 12:38:55;;;;;;;5.72;2.97;;;;;;;;;;5075580;28;20358;-29
2023/05/01 12:41:21;;;;;;;8.35;3.05;;;;;;;;;;5075456;28;20142;-29
2023/05/01 12:43:47;;;;;;;6.32;2.78;;;;;;;;;;5075739;28;20024;-30
2023/05/01 12:46:15;;;;;;;8.63;2.70;;;;;;;;;;5075600;28;20036;-29
2023/05/01 12:48:41;;;;;;;13.18;3.05;;;;;;;;;;5075384;28;20165;-30
2023/05/01 12:51:08;;;;;;;6.25;3.15;;;;;;;;;;5075377;28;20028;-30
2023/05/01 12:53:34;;;;;;;18.10;4.20;;;;;;;;;;5075494;28;20348;-30
2023/05/01 12:56:02;;;;;;;4.57;3.20;;;;;;;;;;5075129;28;20023;-30
2023/05/01 12:58:37;;;;;;;7.50;2.92;;;;;;;;;;5057514;28;20056;-30
2023/05/01 13:01:03;;;;;;;10.38;3.33;;;;;;;;;;5056657;28;20493;-30
2023/05/01 13:03:30;;;;;;;13.77;3.85;;;;;;;;;;5075203;28;20040;-27
2023/05/01 13:05:57;;;;;;;16.55;3.80;;;;;;;;;;5075269;28;20074;-29
2023/05/01 13:08:30;;;;;;;9.68;3.78;;;;;;;;;;5074937;28;20421;-29
2023/05/01 13:10:58;;;;;;;7.32;3.20;;;;;;;;;;5074790;28;20039;-28
2023/05/01 13:13:25;;;;;;;8.07;3.30;;;;;;;;;;5057114;28;20035;-27
2023/05/01 13:15:51;;;;;;;11.45;3.50;;;;;;;;;;5074626;28;20500;-28
2023/05/01 13:18:17;;;;;;;9.82;3.25;;;;;;;;;;5074668;28;20393;-29
2023/05/01 13:20:43;;;;;;;8.10;2.85;;;;;;;;;;5074771;28;20029;-28
2023/05/01 13:23:11;;;;;;;6.13;3.05;;;;;;;;;;5074717;28;20024;-28
2023/05/01 13:25:38;;;;;;;5.75;2.90;;;;;;;;;;5074726;28;20406;-28
2023/05/01 13:28:04;;;;;;;7.78;3.30;;;;;;;;;;5074579;28;20055;-29
2023/05/01 13:30:31;;;;;;;7.18;3.25;;;;;;;;;;5056936;28;20451;-28
2023/05/01 13:32:57;;;;;;;8.68;3.70;;;;;;;;;;5074943;28;20024;-28
2023/05/01 13:35:25;;;;;;;10.52;4.22;;;;;;;;;;5056947;28;20359;-28
2023/05/01 13:37:51;;;;;;;6.38;3.30;;;;;;;;;;5074744;28;20332;-28
2023/05/01 13:40:18;;;;;;;6.88;3.13;;;;;;;;;;5074543;28;20040;-29
2023/05/01 13:42:44;;;;;;;7.40;2.92;;;;;;;;;;5074459;28;20024;-27
2023/05/01 13:45:11;;;;;;;4.13;3.13;;;;;;;;;;5056646;28;20447;-28
2023/05/01 13:47:39;;;;;;;5.72;3.00;;;;;;;;;;5074367;28;20036;-28
2023/05/01 13:50:09;;;;;;;8.07;3.00;;;;;;;;;;5074084;28;20029;-28
2023/05/01 13:52:40;;;;;;;8.73;3.13;;;;;;;;;;5074348;28;20021;-28
2023/05/01 13:55:07;;;;;;;7.40;2.70;;;;;;;;;;5074340;28;20104;-28
2023/05/01 13:57:35;;;;;;;6.45;2.95;;;;;;;;;;5074192;28;20021;-28
2023/05/01 14:00:01;;;;;;;17.83;2.95;;;;;;;;;;5056298;28;20506;-28
2023/05/01 14:02:28;;;;;;;11.93;3.67;;;;;;;;;;5074323;28;20048;-28
2023/05/01 14:04:55;;;;;;;6.65;3.65;;;;;;;;;;5074299;28;20032;-28
2023/05/01 14:09:58;;;;;;;12.00;3.55;;;;;;;;;;5089737;22;20443;-24
2023/05/01 14:12:31;;;;;;;8.60;3.55;;;;;;;;;;5077354;28;20104;-24
2023/05/01 14:14:58;;;;;;;14.75;3.17;;;;;;;;;;5078761;28;20077;-23
2023/05/01 14:17:36;;;;;;;9.30;3.58;;;;;;;;;;5078830;28;20021;-23
2023/05/01 14:20:03;;;;;;;13.65;4.03;;;;;;;;;;5058264;28;20467;-25
2023/05/01 14:22:43;;;;;;;16.73;3.33;;;;;;;;;;5040713;28;20417;-26
2023/05/01 14:25:36;;;;;;;10.10;4.00;;;;;;;;;;5040637;28;20029;-26
2023/05/01 14:28:05;;;;;;;13.95;4.43;;;;;;;;;;5047954;28;20116;-26
2023/05/01 14:30:32;;;;;;;12.95;3.50;;;;;;;;;;5058037;28;20024;-26
2023/05/01 14:33:01;;;;;;;10.07;3.95;;;;;;;;;;5058271;28;20458;-26
2023/05/01 14:35:27;;;;;;;15.55;5.10;;;;;;;;;;5057883;28;20151;-24
2023/05/01 14:37:54;;;;;;;15.90;4.00;;;;;;;;;;5058577;28;20033;-25
2023/05/01 14:40:26;;;;;;;11.70;3.60;;;;;;;;;;5057774;28;20053;-25
2023/05/01 14:42:52;;;;;;;12.48;4.25;;;;;;;;;;5057769;28;20548;-26
2023/05/01 14:45:19;;;;;;;18.05;4.57;;;;;;;;;;5057855;28;20029;-25
2023/05/01 14:47:46;;;;;;;15.50;4.07;;;;;;;;;;5057518;28;20032;-26
2023/05/01 14:50:17;;;;;;;6.63;3.47;;;;;;;;;;5040677;28;20033;-25
2023/05/01 14:52:44;;;;;;;7.85;3.47;;;;;;;;;;5023683;28;20017;-26
2023/05/01 14:55:10;;;;;;;15.13;3.95;;;;;;;;;;5039976;28;20021;-26
2023/05/01 14:57:37;;;;;;;7.93;3.00;;;;;;;;;;5057666;28;20021;-26
2023/05/01 15:00:07;;;;;;;7.47;4.97;;;;;;;;;;5057384;28;20517;-26
2023/05/01 15:02:33;;;;;;;4.97;3.03;;;;;;;;;;5057654;28;20037;-26
2023/05/01 15:05:00;;;;;;;15.32;4.50;;;;;;;;;;5057530;28;20020;-26
2023/05/01 15:07:26;;;;;;;14.27;4.45;;;;;;;;;;5057520;28;20355;-26
2023/05/01 15:09:52;;;;;;;10.20;4.47;;;;;;;;;;5056897;28;20037;-26